sensor_id;sensor_type;location;lat;lon;timestamp;temperature;humidity
1391;DHT22;690;51.454;7.194;2023-08-01T00:00:53;14.60;1.00
1391;DHT22;690;51.454;7.194;2023-08-01T00:03:21;14.60;1.00
1391;DHT22;690;51.454;7.194;2023-08-01T00:05:48;14.50;1.00
1391;DHT22;690;51.454;7.194;2023-08-01T00:08:15;14.50;1.00
1391;DHT22;690;51.454;7.194;2023-08-01T00:10:42;14.40;1.00
1391;DHT22;690;51.454;7.194;2023-08-01T00:13:10;14.40;1.00
1391;DHT22;690;51.454;7.194;2023-08-01T00:15:38;14.30;1.00
1391;DHT22;690;51.454;7.194;2023-08-01T00:18:05;14.30;1.00
1391;DHT22;690;51.454;7.194;2023-08-01T00:20:31;14.30;1.00
1391;DHT22;690;51.454;7.194;2023-08-01T00:22:58;14.40;1.00
1391;DHT22;690;51.454;7.194;2023-08-01T00:25:25;14.40;1.00
1391;DHT22;690;51.454;7.194;2023-08-01T00:27:53;14.50;1.00
1391;DHT22;690;51.454;7.194;2023-08-01T00:30:21;14.50;1.00
1391;DHT22;690;51.454;7.194;2023-08-01T00:32:48;14.40;1.00
1391;DHT22;690;51.454;7.194;2023-08-01T00:35:15;14.40;1.00
1391;DHT22;690;51.454;7.194;2023-08-01T00:37:42;14.40;1.00
1391;DHT22;690;51.454;7.194;2023-08-01T00:40:09;14.30;1.00
1391;DHT22;690;51.454;7.194;2023-08-01T00:42:37;14.30;1.00
1391;DHT22;690;51.454;7.194;2023-08-01T00:45:05;14.30;1.00
1391;DHT22;690;51.454;7.194;2023-08-01T00:47:34;14.30;1.00
1391;DHT22;690;51.454;7.194;2023-08-01T00:50:01;14.30;1.00
1391;DHT22;690;51.454;7.194;2023-08-01T00:52:28;14.30;1.00
1391;DHT22;690;51.454;7.194;2023-08-01T00:54:55;14.30;1.00
1391;DHT22;690;51.454;7.194;2023-08-01T00:57:22;14.30;1.00
1391;DHT22;690;51.454;7.194;2023-08-01T00:59:49;14.30;1.00
1391;DHT22;690;51.454;7.194;2023-08-01T01:02:17;14.30;1.00
1391;DHT22;690;51.454;7.194;2023-08-01T01:04:45;14.30;1.00
1391;DHT22;690;51.454;7.194;2023-08-01T01:07:14;14.30;1.00
1391;DHT22;690;51.454;7.194;2023-08-01T01:09:42;14.30;1.00
1391;DHT22;690;51.454;7.194;2023-08-01T01:12:09;14.30;1.00
1391;DHT22;690;51.454;7.194;2023-08-01T01:14:36;14.40;1.00
1391;DHT22;690;51.454;7.194;2023-08-01T01:17:03;14.40;1.00
1391;DHT22;690;51.454;7.194;2023-08-01T01:19:30;14.40;1.00
1391;DHT22;690;51.454;7.194;2023-08-01T01:21:58;14.40;1.00
1391;DHT22;690;51.454;7.194;2023-08-01T01:24:26;14.50;1.00
1391;DHT22;690;51.454;7.194;2023-08-01T01:26:54;14.50;1.00
1391;DHT22;690;51.454;7.194;2023-08-01T01:29:22;14.50;1.00
1391;DHT22;690;51.454;7.194;2023-08-01T01:31:50;14.50;1.00
1391;DHT22;690;51.454;7.194;2023-08-01T01:34:17;14.50;1.00
1391;DHT22;690;51.454;7.194;2023-08-01T01:36:44;14.50;1.00
1391;DHT22;690;51.454;7.194;2023-08-01T01:39:12;14.40;1.00
1391;DHT22;690;51.454;7.194;2023-08-01T01:41:39;14.40;1.00
1391;DHT22;690;51.454;7.194;2023-08-01T01:44:06;14.30;1.00
1391;DHT22;690;51.454;7.194;2023-08-01T01:46:33;14.30;1.00
1391;DHT22;690;51.454;7.194;2023-08-01T01:49:00;14.20;1.00
1391;DHT22;690;51.454;7.194;2023-08-01T01:51:27;14.20;1.00
1391;DHT22;690;51.454;7.194;2023-08-01T01:53:54;14.20;1.00
1391;DHT22;690;51.454;7.194;2023-08-01T01:56:22;14.20;1.00
1391;DHT22;690;51.454;7.194;2023-08-01T01:58:49;14.20;1.00
1391;DHT22;690;51.454;7.194;2023-08-01T02:01:16;14.20;1.00
1391;DHT22;690;51.454;7.194;2023-08-01T02:03:43;14.20;1.00
1391;DHT22;690;51.454;7.194;2023-08-01T02:06:10;14.20;1.00
1391;DHT22;690;51.454;7.194;2023-08-01T02:08:37;14.20;1.00
1391;DHT22;690;51.454;7.194;2023-08-01T02:11:04;14.30;1.00
1391;DHT22;690;51.454;7.194;2023-08-01T02:13:32;14.30;1.00
1391;DHT22;690;51.454;7.194;2023-08-01T02:15:59;14.30;1.00
1391;DHT22;690;51.454;7.194;2023-08-01T02:18:26;14.30;1.00
1391;DHT22;690;51.454;7.194;2023-08-01T02:20:53;14.20;1.00
1391;DHT22;690;51.454;7.194;2023-08-01T02:23:20;14.20;1.00
1391;DHT22;690;51.454;7.194;2023-08-01T02:25:47;14.20;1.00
1391;DHT22;690;51.454;7.194;2023-08-01T02:28:14;14.20;1.00
1391;DHT22;690;51.454;7.194;2023-08-01T02:30:42;14.20;1.00
1391;DHT22;690;51.454;7.194;2023-08-01T02:33:09;14.20;1.00
1391;DHT22;690;51.454;7.194;2023-08-01T02:35:36;14.20;1.00
1391;DHT22;690;51.454;7.194;2023-08-01T02:38:03;14.20;1.00
1391;DHT22;690;51.454;7.194;2023-08-01T02:40:30;14.20;1.00
1391;DHT22;690;51.454;7.194;2023-08-01T02:42:57;14.20;1.00
1391;DHT22;690;51.454;7.194;2023-08-01T02:45:24;14.20;1.00
1391;DHT22;690;51.454;7.194;2023-08-01T02:47:52;14.20;1.00
1391;DHT22;690;51.454;7.194;2023-08-01T02:50:19;14.10;1.00
1391;DHT22;690;51.454;7.194;2023-08-01T02:52:46;14.20;1.00
1391;DHT22;690;51.454;7.194;2023-08-01T02:55:13;14.10;1.00
1391;DHT22;690;51.454;7.194;2023-08-01T02:57:40;14.10;1.00
1391;DHT22;690;51.454;7.194;2023-08-01T03:00:07;14.10;1.00
1391;DHT22;690;51.454;7.194;2023-08-01T03:02:37;14.00;1.00
1391;DHT22;690;51.454;7.194;2023-08-01T03:05:07;14.10;1.00
1391;DHT22;690;51.454;7.194;2023-08-01T03:07:35;14.00;1.00
1391;DHT22;690;51.454;7.194;2023-08-01T03:10:02;14.00;1.00
1391;DHT22;690;51.454;7.194;2023-08-01T03:12:29;14.10;1.00
1391;DHT22;690;51.454;7.194;2023-08-01T03:14:56;14.10;1.00
1391;DHT22;690;51.454;7.194;2023-08-01T03:17:23;14.00;1.00
1391;DHT22;690;51.454;7.194;2023-08-01T03:19:50;13.90;1.00
1391;DHT22;690;51.454;7.194;2023-08-01T03:22:18;14.00;1.00
1391;DHT22;690;51.454;7.194;2023-08-01T03:24:45;14.10;1.00
1391;DHT22;690;51.454;7.194;2023-08-01T03:27:12;14.00;1.00
1391;DHT22;690;51.454;7.194;2023-08-01T03:29:39;14.10;1.00
1391;DHT22;690;51.454;7.194;2023-08-01T03:32:06;14.10;1.00
1391;DHT22;690;51.454;7.194;2023-08-01T03:34:33;14.10;1.00
1391;DHT22;690;51.454;7.194;2023-08-01T03:37:00;14.20;1.00
1391;DHT22;690;51.454;7.194;2023-08-01T03:39:29;14.10;1.00
1391;DHT22;690;51.454;7.194;2023-08-01T03:41:55;14.10;1.00
1391;DHT22;690;51.454;7.194;2023-08-01T03:44:22;14.10;1.00
1391;DHT22;690;51.454;7.194;2023-08-01T03:46:50;14.20;1.00
1391;DHT22;690;51.454;7.194;2023-08-01T03:49:16;14.10;1.00
1391;DHT22;690;51.454;7.194;2023-08-01T03:51:43;14.10;1.00
1391;DHT22;690;51.454;7.194;2023-08-01T03:54:10;14.00;1.00
1391;DHT22;690;51.454;7.194;2023-08-01T03:56:39;14.00;1.00
1391;DHT22;690;51.454;7.194;2023-08-01T03:59:08;14.00;1.00
1391;DHT22;690;51.454;7.194;2023-08-01T04:01:35;14.00;1.00
1391;DHT22;690;51.454;7.194;2023-08-01T04:04:02;14.00;1.00
1391;DHT22;690;51.454;7.194;2023-08-01T04:06:29;14.00;1.00
1391;DHT22;690;51.454;7.194;2023-08-01T04:08:56;14.00;1.00
1391;DHT22;690;51.454;7.194;2023-08-01T04:11:23;14.00;1.00
1391;DHT22;690;51.454;7.194;2023-08-01T04:13:51;13.90;1.00
1391;DHT22;690;51.454;7.194;2023-08-01T04:16:19;13.90;1.00
1391;DHT22;690;51.454;7.194;2023-08-01T04:18:46;13.90;1.00
1391;DHT22;690;51.454;7.194;2023-08-01T04:21:13;13.90;1.00
1391;DHT22;690;51.454;7.194;2023-08-01T04:23:40;13.90;1.00
1391;DHT22;690;51.454;7.194;2023-08-01T04:26:08;14.00;1.00
1391;DHT22;690;51.454;7.194;2023-08-01T04:28:35;13.90;1.00
1391;DHT22;690;51.454;7.194;2023-08-01T04:31:03;13.90;1.00
1391;DHT22;690;51.454;7.194;2023-08-01T04:33:30;13.90;1.00
1391;DHT22;690;51.454;7.194;2023-08-01T04:35:57;14.00;1.00
1391;DHT22;690;51.454;7.194;2023-08-01T04:38:24;14.00;1.00
1391;DHT22;690;51.454;7.194;2023-08-01T04:40:50;14.00;1.00
1391;DHT22;690;51.454;7.194;2023-08-01T04:43:17;14.00;1.00
1391;DHT22;690;51.454;7.194;2023-08-01T04:45:45;14.00;1.00
1391;DHT22;690;51.454;7.194;2023-08-01T04:48:13;14.10;1.00
1391;DHT22;690;51.454;7.194;2023-08-01T04:50:40;14.10;1.00
1391;DHT22;690;51.454;7.194;2023-08-01T04:53:07;14.00;1.00
1391;DHT22;690;51.454;7.194;2023-08-01T04:55:34;14.10;1.00
1391;DHT22;690;51.454;7.194;2023-08-01T04:58:01;14.00;1.00
1391;DHT22;690;51.454;7.194;2023-08-01T05:00:28;14.10;1.00
1391;DHT22;690;51.454;7.194;2023-08-01T05:02:55;14.00;1.00
1391;DHT22;690;51.454;7.194;2023-08-01T05:05:23;14.00;1.00
1391;DHT22;690;51.454;7.194;2023-08-01T05:07:50;14.10;1.00
1391;DHT22;690;51.454;7.194;2023-08-01T05:10:17;14.10;1.00
1391;DHT22;690;51.454;7.194;2023-08-01T05:12:44;14.10;1.00
1391;DHT22;690;51.454;7.194;2023-08-01T05:15:11;14.00;1.00
1391;DHT22;690;51.454;7.194;2023-08-01T05:17:38;13.90;1.00
1391;DHT22;690;51.454;7.194;2023-08-01T05:20:06;13.90;1.00
1391;DHT22;690;51.454;7.194;2023-08-01T05:22:35;13.90;1.00
1391;DHT22;690;51.454;7.194;2023-08-01T05:25:02;13.90;1.00
1391;DHT22;690;51.454;7.194;2023-08-01T05:27:30;13.90;1.00
1391;DHT22;690;51.454;7.194;2023-08-01T05:29:57;13.90;1.00
1391;DHT22;690;51.454;7.194;2023-08-01T05:32:24;13.90;1.00
1391;DHT22;690;51.454;7.194;2023-08-01T05:34:51;14.00;1.00
1391;DHT22;690;51.454;7.194;2023-08-01T05:37:18;14.00;1.00
1391;DHT22;690;51.454;7.194;2023-08-01T05:39:46;14.10;1.00
1391;DHT22;690;51.454;7.194;2023-08-01T05:42:13;14.20;1.00
1391;DHT22;690;51.454;7.194;2023-08-01T05:44:39;14.20;1.00
1391;DHT22;690;51.454;7.194;2023-08-01T05:47:07;14.20;1.00
1391;DHT22;690;51.454;7.194;2023-08-01T05:49:34;14.20;1.00
1391;DHT22;690;51.454;7.194;2023-08-01T05:52:01;14.20;1.00
1391;DHT22;690;51.454;7.194;2023-08-01T05:54:27;14.10;1.00
1391;DHT22;690;51.454;7.194;2023-08-01T05:56:56;14.10;1.00
1391;DHT22;690;51.454;7.194;2023-08-01T05:59:23;14.10;1.00
1391;DHT22;690;51.454;7.194;2023-08-01T06:01:50;14.10;1.00
1391;DHT22;690;51.454;7.194;2023-08-01T06:04:16;14.20;1.00
1391;DHT22;690;51.454;7.194;2023-08-01T06:06:43;14.20;1.00
1391;DHT22;690;51.454;7.194;2023-08-01T06:09:10;14.20;1.00
1391;DHT22;690;51.454;7.194;2023-08-01T06:11:37;14.30;1.00
1391;DHT22;690;51.454;7.194;2023-08-01T06:14:06;14.30;1.00
1391;DHT22;690;51.454;7.194;2023-08-01T06:16:33;14.30;1.00
1391;DHT22;690;51.454;7.194;2023-08-01T06:19:00;14.40;1.00
1391;DHT22;690;51.454;7.194;2023-08-01T06:21:27;14.30;1.00
1391;DHT22;690;51.454;7.194;2023-08-01T06:23:54;14.30;1.00
1391;DHT22;690;51.454;7.194;2023-08-01T06:26:21;14.40;1.00
1391;DHT22;690;51.454;7.194;2023-08-01T06:28:48;14.40;1.00
1391;DHT22;690;51.454;7.194;2023-08-01T06:31:16;14.40;1.00
1391;DHT22;690;51.454;7.194;2023-08-01T06:33:43;14.40;1.00
1391;DHT22;690;51.454;7.194;2023-08-01T06:36:10;14.40;1.00
1391;DHT22;690;51.454;7.194;2023-08-01T06:38:36;14.30;1.00
1391;DHT22;690;51.454;7.194;2023-08-01T06:41:03;14.40;1.00
1391;DHT22;690;51.454;7.194;2023-08-01T06:43:30;14.40;1.00
1391;DHT22;690;51.454;7.194;2023-08-01T06:45:57;14.60;1.00
1391;DHT22;690;51.454;7.194;2023-08-01T06:48:26;14.70;1.00
1391;DHT22;690;51.454;7.194;2023-08-01T06:50:53;14.70;1.00
1391;DHT22;690;51.454;7.194;2023-08-01T06:53:20;14.80;1.00
1391;DHT22;690;51.454;7.194;2023-08-01T06:55:46;15.00;1.00
1391;DHT22;690;51.454;7.194;2023-08-01T06:58:13;15.10;1.00
1391;DHT22;690;51.454;7.194;2023-08-01T07:00:40;15.20;1.00
1391;DHT22;690;51.454;7.194;2023-08-01T07:03:07;15.30;99.90
1391;DHT22;690;51.454;7.194;2023-08-01T07:05:35;15.20;99.90
1391;DHT22;690;51.454;7.194;2023-08-01T07:08:03;15.20;99.90
1391;DHT22;690;51.454;7.194;2023-08-01T07:10:34;15.20;99.90
1391;DHT22;690;51.454;7.194;2023-08-01T07:13:01;15.30;99.90
1391;DHT22;690;51.454;7.194;2023-08-01T07:15:29;15.20;99.90
1391;DHT22;690;51.454;7.194;2023-08-01T07:17:56;15.20;99.90
1391;DHT22;690;51.454;7.194;2023-08-01T07:20:23;15.20;68.50
1391;DHT22;690;51.454;7.194;2023-08-01T07:22:51;15.20;2.30
1391;DHT22;690;51.454;7.194;2023-08-01T07:25:18;15.10;1.00
1391;DHT22;690;51.454;7.194;2023-08-01T07:27:46;15.10;17.40
1391;DHT22;690;51.454;7.194;2023-08-01T07:30:13;15.10;1.00
1391;DHT22;690;51.454;7.194;2023-08-01T07:32:39;15.00;1.00
1391;DHT22;690;51.454;7.194;2023-08-01T07:35:09;15.10;1.00
1391;DHT22;690;51.454;7.194;2023-08-01T07:37:36;15.10;1.00
1391;DHT22;690;51.454;7.194;2023-08-01T07:40:06;15.10;1.00
1391;DHT22;690;51.454;7.194;2023-08-01T07:42:33;15.20;1.00
1391;DHT22;690;51.454;7.194;2023-08-01T07:45:00;15.20;1.00
1391;DHT22;690;51.454;7.194;2023-08-01T07:47:27;15.40;1.00
1391;DHT22;690;51.454;7.194;2023-08-01T07:49:54;15.50;99.90
1391;DHT22;690;51.454;7.194;2023-08-01T07:52:21;15.70;1.00
1391;DHT22;690;51.454;7.194;2023-08-01T07:54:48;15.70;1.00
1391;DHT22;690;51.454;7.194;2023-08-01T07:57:16;15.80;99.90
1391;DHT22;690;51.454;7.194;2023-08-01T07:59:43;15.80;99.90
1391;DHT22;690;51.454;7.194;2023-08-01T08:02:10;15.90;15.70
1391;DHT22;690;51.454;7.194;2023-08-01T08:04:36;16.00;1.00
1391;DHT22;690;51.454;7.194;2023-08-01T08:07:04;16.10;1.00
1391;DHT22;690;51.454;7.194;2023-08-01T08:09:31;16.40;1.00
1391;DHT22;690;51.454;7.194;2023-08-01T08:11:58;16.50;1.00
1391;DHT22;690;51.454;7.194;2023-08-01T08:14:26;16.60;1.00
1391;DHT22;690;51.454;7.194;2023-08-01T08:16:53;16.80;1.00
1391;DHT22;690;51.454;7.194;2023-08-01T08:19:20;16.90;68.90
1391;DHT22;690;51.454;7.194;2023-08-01T08:21:49;16.80;1.00
1391;DHT22;690;51.454;7.194;2023-08-01T08:24:16;16.70;1.00
1391;DHT22;690;51.454;7.194;2023-08-01T08:26:43;16.80;1.00
1391;DHT22;690;51.454;7.194;2023-08-01T08:29:11;16.80;1.00
1391;DHT22;690;51.454;7.194;2023-08-01T08:31:39;16.80;1.00
1391;DHT22;690;51.454;7.194;2023-08-01T08:34:06;16.60;1.00
1391;DHT22;690;51.454;7.194;2023-08-01T08:36:33;16.50;1.00
1391;DHT22;690;51.454;7.194;2023-08-01T08:39:00;16.40;1.00
1391;DHT22;690;51.454;7.194;2023-08-01T08:41:30;16.30;1.00
1391;DHT22;690;51.454;7.194;2023-08-01T08:44:01;16.40;1.00
1391;DHT22;690;51.454;7.194;2023-08-01T08:46:34;16.40;1.00
1391;DHT22;690;51.454;7.194;2023-08-01T08:49:07;16.50;99.90
1391;DHT22;690;51.454;7.194;2023-08-01T08:51:36;16.50;99.90
1391;DHT22;690;51.454;7.194;2023-08-01T08:54:05;16.30;99.90
1391;DHT22;690;51.454;7.194;2023-08-01T08:56:33;16.30;1.00
1391;DHT22;690;51.454;7.194;2023-08-01T08:59:01;16.20;1.00
1391;DHT22;690;51.454;7.194;2023-08-01T09:01:28;16.30;1.00
1391;DHT22;690;51.454;7.194;2023-08-01T09:03:56;16.30;1.00
1391;DHT22;690;51.454;7.194;2023-08-01T09:06:29;16.30;1.00
1391;DHT22;690;51.454;7.194;2023-08-01T09:09:02;16.40;1.00
1391;DHT22;690;51.454;7.194;2023-08-01T09:11:39;16.40;1.00
1391;DHT22;690;51.454;7.194;2023-08-01T09:14:06;16.30;1.00
1391;DHT22;690;51.454;7.194;2023-08-01T09:16:33;16.20;1.00
1391;DHT22;690;51.454;7.194;2023-08-01T09:19:00;16.20;10.40
1391;DHT22;690;51.454;7.194;2023-08-01T09:21:31;16.30;99.90
1391;DHT22;690;51.454;7.194;2023-08-01T09:24:08;16.30;32.40
1391;DHT22;690;51.454;7.194;2023-08-01T09:26:35;16.30;99.90
1391;DHT22;690;51.454;7.194;2023-08-01T09:29:02;16.30;99.90
1391;DHT22;690;51.454;7.194;2023-08-01T09:31:31;16.20;99.90
1391;DHT22;690;51.454;7.194;2023-08-01T09:33:59;16.30;99.90
1391;DHT22;690;51.454;7.194;2023-08-01T09:36:26;16.50;99.90
1391;DHT22;690;51.454;7.194;2023-08-01T09:38:59;16.80;99.90
1391;DHT22;690;51.454;7.194;2023-08-01T09:41:26;16.90;1.00
1391;DHT22;690;51.454;7.194;2023-08-01T09:43:53;16.90;99.90
1391;DHT22;690;51.454;7.194;2023-08-01T09:46:20;16.90;99.90
1391;DHT22;690;51.454;7.194;2023-08-01T09:48:47;17.00;99.90
1391;DHT22;690;51.454;7.194;2023-08-01T09:51:15;17.00;99.90
1391;DHT22;690;51.454;7.194;2023-08-01T09:53:49;17.10;99.90
1391;DHT22;690;51.454;7.194;2023-08-01T09:56:20;17.40;99.90
1391;DHT22;690;51.454;7.194;2023-08-01T09:58:48;17.60;1.00
1391;DHT22;690;51.454;7.194;2023-08-01T10:01:16;17.80;1.00
1391;DHT22;690;51.454;7.194;2023-08-01T10:03:45;18.00;1.00
1391;DHT22;690;51.454;7.194;2023-08-01T10:06:16;18.10;1.00
1391;DHT22;690;51.454;7.194;2023-08-01T10:08:45;18.40;1.00
1391;DHT22;690;51.454;7.194;2023-08-01T10:11:13;18.70;1.00
1391;DHT22;690;51.454;7.194;2023-08-01T10:13:42;18.80;1.00
1391;DHT22;690;51.454;7.194;2023-08-01T10:16:10;19.00;1.00
1391;DHT22;690;51.454;7.194;2023-08-01T10:18:37;19.10;1.00
1391;DHT22;690;51.454;7.194;2023-08-01T10:21:05;19.10;1.00
1391;DHT22;690;51.454;7.194;2023-08-01T10:23:34;19.00;1.00
1391;DHT22;690;51.454;7.194;2023-08-01T10:26:03;18.60;1.00
1391;DHT22;690;51.454;7.194;2023-08-01T10:28:34;18.40;1.00
1391;DHT22;690;51.454;7.194;2023-08-01T10:31:13;18.10;1.00
1391;DHT22;690;51.454;7.194;2023-08-01T10:33:41;18.00;1.00
1391;DHT22;690;51.454;7.194;2023-08-01T10:36:16;18.00;1.00
1391;DHT22;690;51.454;7.194;2023-08-01T10:38:47;17.80;1.00
1391;DHT22;690;51.454;7.194;2023-08-01T10:41:28;17.60;1.00
1391;DHT22;690;51.454;7.194;2023-08-01T10:44:06;17.50;1.00
1391;DHT22;690;51.454;7.194;2023-08-01T10:46:48;17.40;1.00
1391;DHT22;690;51.454;7.194;2023-08-01T10:49:15;17.40;1.00
1391;DHT22;690;51.454;7.194;2023-08-01T10:51:45;17.40;1.00
1391;DHT22;690;51.454;7.194;2023-08-01T10:54:19;17.40;1.00
1391;DHT22;690;51.454;7.194;2023-08-01T10:56:48;17.60;1.00
1391;DHT22;690;51.454;7.194;2023-08-01T10:59:16;17.70;1.00
1391;DHT22;690;51.454;7.194;2023-08-01T11:01:45;17.80;1.00
1391;DHT22;690;51.454;7.194;2023-08-01T11:04:17;17.70;1.00
1391;DHT22;690;51.454;7.194;2023-08-01T11:06:46;17.50;1.00
1391;DHT22;690;51.454;7.194;2023-08-01T11:09:17;17.20;1.00
1391;DHT22;690;51.454;7.194;2023-08-01T11:11:45;16.50;1.00
1391;DHT22;690;51.454;7.194;2023-08-01T11:14:12;16.00;1.00
1391;DHT22;690;51.454;7.194;2023-08-01T11:16:40;15.60;99.90
1391;DHT22;690;51.454;7.194;2023-08-01T11:19:19;15.30;1.00
1391;DHT22;690;51.454;7.194;2023-08-01T11:21:46;15.10;99.90
1391;DHT22;690;51.454;7.194;2023-08-01T11:24:14;15.10;99.90
1391;DHT22;690;51.454;7.194;2023-08-01T11:26:42;15.30;1.00
1391;DHT22;690;51.454;7.194;2023-08-01T11:29:10;15.60;1.00
1391;DHT22;690;51.454;7.194;2023-08-01T11:31:37;15.90;1.00
1391;DHT22;690;51.454;7.194;2023-08-01T11:34:04;16.30;1.00
1391;DHT22;690;51.454;7.194;2023-08-01T11:36:32;16.80;99.90
1391;DHT22;690;51.454;7.194;2023-08-01T11:39:00;17.30;1.00
1391;DHT22;690;51.454;7.194;2023-08-01T11:41:28;17.70;1.00
1391;DHT22;690;51.454;7.194;2023-08-01T11:43:55;18.00;99.90
1391;DHT22;690;51.454;7.194;2023-08-01T11:46:29;18.10;9.70
1391;DHT22;690;51.454;7.194;2023-08-01T11:48:57;18.30;1.00
1391;DHT22;690;51.454;7.194;2023-08-01T11:51:24;18.50;1.00
1391;DHT22;690;51.454;7.194;2023-08-01T11:53:59;18.70;1.00
1391;DHT22;690;51.454;7.194;2023-08-01T11:56:27;18.90;1.00
1391;DHT22;690;51.454;7.194;2023-08-01T11:58:53;19.10;1.00
1391;DHT22;690;51.454;7.194;2023-08-01T12:01:20;19.10;1.00
1391;DHT22;690;51.454;7.194;2023-08-01T12:03:49;19.10;1.00
1391;DHT22;690;51.454;7.194;2023-08-01T12:06:19;19.00;1.00
1391;DHT22;690;51.454;7.194;2023-08-01T12:08:48;18.80;1.00
1391;DHT22;690;51.454;7.194;2023-08-01T12:11:20;18.70;1.00
1391;DHT22;690;51.454;7.194;2023-08-01T12:13:48;18.50;1.00
1391;DHT22;690;51.454;7.194;2023-08-01T12:16:15;18.50;1.00
1391;DHT22;690;51.454;7.194;2023-08-01T12:18:45;18.60;1.00
1391;DHT22;690;51.454;7.194;2023-08-01T12:21:13;18.70;1.00
1391;DHT22;690;51.454;7.194;2023-08-01T12:23:40;18.70;1.00
1391;DHT22;690;51.454;7.194;2023-08-01T12:26:07;18.80;1.00
1391;DHT22;690;51.454;7.194;2023-08-01T12:28:36;19.10;1.00
1391;DHT22;690;51.454;7.194;2023-08-01T12:31:03;19.30;1.00
1391;DHT22;690;51.454;7.194;2023-08-01T12:33:31;19.50;1.00
1391;DHT22;690;51.454;7.194;2023-08-01T12:35:58;19.50;99.90
1391;DHT22;690;51.454;7.194;2023-08-01T12:38:26;19.30;99.90
1391;DHT22;690;51.454;7.194;2023-08-01T12:40:53;19.20;99.90
1391;DHT22;690;51.454;7.194;2023-08-01T12:43:20;19.00;99.90
1391;DHT22;690;51.454;7.194;2023-08-01T12:45:48;19.00;99.90
1391;DHT22;690;51.454;7.194;2023-08-01T12:48:15;19.20;99.90
1391;DHT22;690;51.454;7.194;2023-08-01T12:50:44;19.40;99.90
1391;DHT22;690;51.454;7.194;2023-08-01T12:53:11;19.50;99.90
1391;DHT22;690;51.454;7.194;2023-08-01T12:55:38;19.50;99.90
1391;DHT22;690;51.454;7.194;2023-08-01T12:58:06;19.60;99.90
1391;DHT22;690;51.454;7.194;2023-08-01T13:00:34;19.80;99.90
1391;DHT22;690;51.454;7.194;2023-08-01T13:03:02;20.00;99.90
1391;DHT22;690;51.454;7.194;2023-08-01T13:05:29;20.10;99.90
1391;DHT22;690;51.454;7.194;2023-08-01T13:07:56;20.20;99.90
1391;DHT22;690;51.454;7.194;2023-08-01T13:10:23;20.20;99.90
1391;DHT22;690;51.454;7.194;2023-08-01T13:12:50;20.20;99.90
1391;DHT22;690;51.454;7.194;2023-08-01T13:15:17;20.30;99.90
1391;DHT22;690;51.454;7.194;2023-08-01T13:17:44;20.30;99.90
1391;DHT22;690;51.454;7.194;2023-08-01T13:20:13;20.30;99.90
1391;DHT22;690;51.454;7.194;2023-08-01T13:22:39;20.30;99.90
1391;DHT22;690;51.454;7.194;2023-08-01T13:25:07;20.20;99.90
1391;DHT22;690;51.454;7.194;2023-08-01T13:27:35;20.00;99.90
1391;DHT22;690;51.454;7.194;2023-08-01T13:30:02;19.80;99.90
1391;DHT22;690;51.454;7.194;2023-08-01T13:32:29;19.70;99.90
1391;DHT22;690;51.454;7.194;2023-08-01T13:34:56;19.50;99.90
1391;DHT22;690;51.454;7.194;2023-08-01T13:37:24;19.40;99.90
1391;DHT22;690;51.454;7.194;2023-08-01T13:39:51;19.40;99.90
1391;DHT22;690;51.454;7.194;2023-08-01T13:42:18;19.40;99.90
1391;DHT22;690;51.454;7.194;2023-08-01T13:44:45;19.60;99.90
1391;DHT22;690;51.454;7.194;2023-08-01T13:47:12;19.70;99.90
1391;DHT22;690;51.454;7.194;2023-08-01T13:49:39;19.80;99.90
1391;DHT22;690;51.454;7.194;2023-08-01T13:52:06;20.00;99.90
1391;DHT22;690;51.454;7.194;2023-08-01T13:54:34;20.20;99.90
1391;DHT22;690;51.454;7.194;2023-08-01T13:57:01;20.10;99.90
1391;DHT22;690;51.454;7.194;2023-08-01T13:59:28;20.10;99.90
1391;DHT22;690;51.454;7.194;2023-08-01T14:01:56;20.00;99.90
1391;DHT22;690;51.454;7.194;2023-08-01T14:04:23;20.00;99.90
1391;DHT22;690;51.454;7.194;2023-08-01T14:06:50;19.90;99.90
1391;DHT22;690;51.454;7.194;2023-08-01T14:09:17;19.80;99.90
1391;DHT22;690;51.454;7.194;2023-08-01T14:11:45;19.90;99.90
1391;DHT22;690;51.454;7.194;2023-08-01T14:14:12;20.10;99.90
1391;DHT22;690;51.454;7.194;2023-08-01T14:16:38;20.20;99.90
1391;DHT22;690;51.454;7.194;2023-08-01T14:19:05;20.20;99.90
1391;DHT22;690;51.454;7.194;2023-08-01T14:21:33;20.10;99.90
1391;DHT22;690;51.454;7.194;2023-08-01T14:24:00;20.00;99.90
1391;DHT22;690;51.454;7.194;2023-08-01T14:26:27;19.80;99.90
1391;DHT22;690;51.454;7.194;2023-08-01T14:28:55;19.70;99.90
1391;DHT22;690;51.454;7.194;2023-08-01T14:31:22;19.50;99.90
1391;DHT22;690;51.454;7.194;2023-08-01T14:33:49;19.40;99.90
1391;DHT22;690;51.454;7.194;2023-08-01T14:36:16;19.30;99.90
1391;DHT22;690;51.454;7.194;2023-08-01T14:38:43;19.20;99.90
1391;DHT22;690;51.454;7.194;2023-08-01T14:41:09;19.10;99.90
1391;DHT22;690;51.454;7.194;2023-08-01T14:43:36;19.10;99.90
1391;DHT22;690;51.454;7.194;2023-08-01T14:46:05;19.20;99.90
1391;DHT22;690;51.454;7.194;2023-08-01T14:48:32;19.30;99.90
1391;DHT22;690;51.454;7.194;2023-08-01T14:50:59;19.20;99.90
1391;DHT22;690;51.454;7.194;2023-08-01T14:53:25;19.20;99.90
1391;DHT22;690;51.454;7.194;2023-08-01T14:55:56;19.30;99.90
1391;DHT22;690;51.454;7.194;2023-08-01T14:58:25;19.20;99.90
1391;DHT22;690;51.454;7.194;2023-08-01T15:00:52;19.20;99.90
1391;DHT22;690;51.454;7.194;2023-08-01T15:03:20;19.30;99.90
1391;DHT22;690;51.454;7.194;2023-08-01T15:05:47;19.40;99.90
1391;DHT22;690;51.454;7.194;2023-08-01T15:08:14;19.50;99.90
1391;DHT22;690;51.454;7.194;2023-08-01T15:10:41;19.70;99.90
1391;DHT22;690;51.454;7.194;2023-08-01T15:13:08;19.90;99.90
1391;DHT22;690;51.454;7.194;2023-08-01T15:15:35;20.20;99.90
1391;DHT22;690;51.454;7.194;2023-08-01T15:18:03;20.40;99.90
1391;DHT22;690;51.454;7.194;2023-08-01T15:20:31;20.50;99.90
1391;DHT22;690;51.454;7.194;2023-08-01T15:23:00;20.60;99.90
1391;DHT22;690;51.454;7.194;2023-08-01T15:25:27;20.60;99.90
1391;DHT22;690;51.454;7.194;2023-08-01T15:27:54;20.60;99.90
1391;DHT22;690;51.454;7.194;2023-08-01T15:30:21;20.60;99.90
1391;DHT22;690;51.454;7.194;2023-08-01T15:32:48;20.70;99.90
1391;DHT22;690;51.454;7.194;2023-08-01T15:35:15;20.90;99.90
1391;DHT22;690;51.454;7.194;2023-08-01T15:37:43;21.00;99.90
1391;DHT22;690;51.454;7.194;2023-08-01T15:40:11;21.00;99.90
1391;DHT22;690;51.454;7.194;2023-08-01T15:42:37;21.10;99.90
1391;DHT22;690;51.454;7.194;2023-08-01T15:45:05;21.00;99.90
1391;DHT22;690;51.454;7.194;2023-08-01T15:47:32;21.00;99.90
1391;DHT22;690;51.454;7.194;2023-08-01T15:49:59;21.70;99.90
1391;DHT22;690;51.454;7.194;2023-08-01T15:52:26;22.50;99.90
1391;DHT22;690;51.454;7.194;2023-08-01T15:54:55;23.70;99.90
1391;DHT22;690;51.454;7.194;2023-08-01T15:57:22;23.90;99.90
1391;DHT22;690;51.454;7.194;2023-08-01T15:59:49;23.50;99.90
1391;DHT22;690;51.454;7.194;2023-08-01T16:02:15;22.80;99.90
1391;DHT22;690;51.454;7.194;2023-08-01T16:04:42;21.90;99.90
1391;DHT22;690;51.454;7.194;2023-08-01T16:07:09;21.20;99.90
1391;DHT22;690;51.454;7.194;2023-08-01T16:09:36;20.80;99.90
1391;DHT22;690;51.454;7.194;2023-08-01T16:12:05;21.10;99.90
1391;DHT22;690;51.454;7.194;2023-08-01T16:14:32;20.80;99.90
1391;DHT22;690;51.454;7.194;2023-08-01T16:17:00;20.50;99.90
1391;DHT22;690;51.454;7.194;2023-08-01T16:19:27;20.40;99.90
1391;DHT22;690;51.454;7.194;2023-08-01T16:21:54;20.40;99.90
1391;DHT22;690;51.454;7.194;2023-08-01T16:24:21;20.30;99.90
1391;DHT22;690;51.454;7.194;2023-08-01T16:26:48;20.40;99.90
1391;DHT22;690;51.454;7.194;2023-08-01T16:29:16;20.50;99.90
1391;DHT22;690;51.454;7.194;2023-08-01T16:31:43;21.20;99.90